createdAt,value
2023-01-07T00:00:09.625Z,0
2023-01-07T00:01:09.399Z,0
2023-01-07T00:02:09.379Z,0
2023-01-07T00:03:09.413Z,0
2023-01-07T00:04:09.367Z,0
2023-01-07T00:05:09.390Z,0
2023-01-07T00:06:09.345Z,0
2023-01-07T00:07:09.335Z,0
2023-01-07T00:08:09.322Z,0
2023-01-07T00:09:09.312Z,0
2023-01-07T00:10:09.296Z,0
2023-01-07T00:11:09.298Z,0
2023-01-07T00:12:09.286Z,0
2023-01-07T00:13:09.263Z,0
2023-01-07T00:14:09.255Z,0
2023-01-07T00:15:09.320Z,0
2023-01-07T00:16:09.239Z,0
2023-01-07T00:17:09.223Z,0
2023-01-07T00:18:09.219Z,0
2023-01-07T00:19:09.211Z,0
2023-01-07T00:20:09.227Z,0
2023-01-07T00:21:09.181Z,0
2023-01-07T00:22:09.193Z,0
2023-01-07T00:23:09.163Z,0
2023-01-07T00:24:09.189Z,0
2023-01-07T00:25:09.174Z,0
2023-01-07T00:26:09.134Z,0
2023-01-07T00:27:09.122Z,0
2023-01-07T00:28:09.130Z,0
2023-01-07T00:29:09.098Z,0
2023-01-07T00:30:09.089Z,0
2023-01-07T00:31:09.074Z,0
2023-01-07T00:32:09.124Z,0
2023-01-07T00:33:09.068Z,0
2023-01-07T00:34:09.040Z,0
2023-01-07T00:35:09.115Z,0
2023-01-07T00:36:09.033Z,0
2023-01-07T00:37:09.010Z,0
2023-01-07T00:38:09.008Z,0
2023-01-07T00:39:08.993Z,0
2023-01-07T00:40:08.996Z,0
2023-01-07T00:41:08.990Z,0
2023-01-07T00:42:08.967Z,0
2023-01-07T00:43:08.947Z,0
2023-01-07T00:44:08.935Z,0
2023-01-07T00:45:08.952Z,0
2023-01-07T00:46:08.914Z,0
2023-01-07T00:47:08.910Z,0
2023-01-07T00:48:08.896Z,0
2023-01-07T00:49:08.880Z,0
2023-01-07T00:50:08.874Z,0
2023-01-07T00:51:08.864Z,0
2023-01-07T00:52:08.865Z,0
2023-01-07T00:53:08.851Z,0
2023-01-07T00:54:08.846Z,0
2023-01-07T00:55:08.861Z,0
2023-01-07T00:56:08.818Z,0
2023-01-07T00:57:08.799Z,0
2023-01-07T00:58:08.787Z,0
2023-01-07T00:59:08.783Z,0
2023-01-07T01:00:08.793Z,0
2023-01-07T01:01:08.756Z,0
2023-01-07T01:02:08.746Z,0
2023-01-07T01:03:08.735Z,0
2023-01-07T01:04:08.726Z,0
2023-01-07T01:05:08.717Z,0
2023-01-07T01:06:08.734Z,0
2023-01-07T01:07:08.709Z,0
2023-01-07T01:08:08.686Z,0
2023-01-07T01:09:08.690Z,0
2023-01-07T01:10:08.700Z,0
2023-01-07T01:11:08.655Z,0
2023-01-07T01:12:08.645Z,0
2023-01-07T01:13:08.634Z,0
2023-01-07T01:14:08.622Z,0
2023-01-07T01:15:08.621Z,0
2023-01-07T01:16:08.599Z,0
2023-01-07T01:17:08.589Z,0
2023-01-07T01:18:08.578Z,0
2023-01-07T01:19:08.638Z,0
2023-01-07T01:20:08.610Z,0
2023-01-07T01:21:08.562Z,0
2023-01-07T01:22:08.609Z,0
2023-01-07T01:23:08.561Z,0
2023-01-07T01:24:08.519Z,0
2023-01-07T01:25:08.532Z,0
2023-01-07T01:26:08.498Z,0
2023-01-07T01:27:08.496Z,0
2023-01-07T01:28:08.473Z,0
2023-01-07T01:29:08.455Z,0
2023-01-07T01:30:08.473Z,0
2023-01-07T01:31:08.471Z,0
2023-01-07T01:32:08.431Z,0
2023-01-07T01:33:08.422Z,0
2023-01-07T01:34:08.404Z,0
2023-01-07T01:35:08.397Z,0
2023-01-07T01:36:08.384Z,0
2023-01-07T01:37:08.410Z,0
2023-01-07T01:38:08.358Z,0
2023-01-07T01:39:08.367Z,0
2023-01-07T01:40:08.362Z,0
2023-01-07T01:41:08.339Z,0
2023-01-07T01:42:08.356Z,0
2023-01-07T01:43:08.376Z,0
2023-01-07T01:44:08.364Z,0
2023-01-07T01:45:08.315Z,0
2023-01-07T01:46:08.283Z,0
2023-01-07T01:47:08.305Z,0
2023-01-07T01:48:08.256Z,0
2023-01-07T01:49:08.253Z,0
2023-01-07T01:50:08.240Z,0
2023-01-07T01:51:08.262Z,0
2023-01-07T01:52:08.219Z,0
2023-01-07T01:53:08.214Z,0
2023-01-07T01:54:08.273Z,0
2023-01-07T01:55:08.181Z,0
2023-01-07T01:56:08.202Z,0
2023-01-07T01:57:08.160Z,0
2023-01-07T01:58:08.146Z,0
2023-01-07T01:59:08.140Z,0
2023-01-07T02:00:08.143Z,0
2023-01-07T02:01:08.128Z,0
2023-01-07T02:02:08.125Z,0
2023-01-07T02:03:08.106Z,0
2023-01-07T02:04:08.086Z,0
2023-01-07T02:05:08.088Z,0
2023-01-07T02:06:08.074Z,0
2023-01-07T02:07:08.076Z,0
2023-01-07T02:08:08.044Z,0
2023-01-07T02:09:08.033Z,0
2023-01-07T02:10:08.035Z,0
2023-01-07T02:11:08.018Z,0
2023-01-07T02:12:08.021Z,0
2023-01-07T02:13:08.044Z,0
2023-01-07T02:14:07.994Z,0
2023-01-07T02:15:07.993Z,0
2023-01-07T02:16:08.003Z,0
2023-01-07T02:17:07.952Z,0
2023-01-07T02:18:07.933Z,0
2023-01-07T02:19:07.929Z,0
2023-01-07T02:20:07.911Z,0
2023-01-07T02:21:08.157Z,0
2023-01-07T02:22:07.911Z,0
2023-01-07T02:23:07.957Z,0
2023-01-07T02:24:07.878Z,0
2023-01-07T02:25:08.018Z,0
2023-01-07T02:26:07.886Z,0
2023-01-07T02:27:07.838Z,0
2023-01-07T02:28:07.830Z,0
2023-01-07T02:29:07.816Z,0
2023-01-07T02:30:07.815Z,0
2023-01-07T02:31:07.817Z,0
2023-01-07T02:32:07.786Z,0
2023-01-07T02:33:07.781Z,0
2023-01-07T02:34:07.763Z,0
2023-01-07T02:35:07.752Z,0
2023-01-07T02:36:07.758Z,0
2023-01-07T02:37:07.736Z,0
2023-01-07T02:38:07.769Z,0
2023-01-07T02:39:07.719Z,0
2023-01-07T02:40:07.770Z,0
2023-01-07T02:41:07.697Z,0
2023-01-07T02:42:07.713Z,0
2023-01-07T02:43:07.720Z,0
2023-01-07T02:44:07.725Z,0
2023-01-07T02:45:07.661Z,0
2023-01-07T02:46:07.659Z,0
2023-01-07T02:47:07.703Z,0
2023-01-07T02:48:07.624Z,0
2023-01-07T02:49:07.601Z,0
2023-01-07T02:50:07.599Z,0
2023-01-07T02:51:07.599Z,0
2023-01-07T02:52:07.575Z,0
2023-01-07T02:53:07.577Z,0
2023-01-07T02:54:07.554Z,0
2023-01-07T02:55:07.541Z,0
2023-01-07T02:56:07.530Z,0
2023-01-07T02:57:07.515Z,0
2023-01-07T02:58:07.566Z,0
2023-01-07T02:59:07.542Z,0
2023-01-07T03:00:07.505Z,0
2023-01-07T03:01:07.512Z,0
2023-01-07T03:02:07.463Z,0
2023-01-07T03:03:07.448Z,0
2023-01-07T03:04:07.443Z,0
2023-01-07T03:05:07.438Z,0
2023-01-07T03:06:07.430Z,0
2023-01-07T03:07:07.521Z,0
2023-01-07T03:08:07.405Z,0
2023-01-07T03:09:07.386Z,0
2023-01-07T03:10:07.375Z,0
2023-01-07T03:11:07.377Z,0
2023-01-07T03:12:07.362Z,0
2023-01-07T03:13:07.345Z,0
2023-01-07T03:14:07.335Z,0
2023-01-07T03:15:07.422Z,0
2023-01-07T03:16:07.331Z,0
2023-01-07T03:17:07.305Z,0
2023-01-07T03:18:07.294Z,0
2023-01-07T03:19:07.297Z,0
2023-01-07T03:20:07.267Z,0
2023-01-07T03:21:07.275Z,0
2023-01-07T03:22:07.272Z,0
2023-01-07T03:23:07.237Z,0
2023-01-07T03:24:07.231Z,0
2023-01-07T03:25:07.220Z,0
2023-01-07T03:26:07.214Z,0
2023-01-07T03:27:07.336Z,0
2023-01-07T03:28:07.221Z,0
2023-01-07T03:29:07.179Z,0
2023-01-07T03:30:07.213Z,0
2023-01-07T03:31:07.154Z,0
2023-01-07T03:32:07.146Z,0
2023-01-07T03:33:07.129Z,0
2023-01-07T03:34:07.148Z,0
2023-01-07T03:35:07.142Z,0
2023-01-07T03:36:07.102Z,0
2023-01-07T03:37:07.090Z,0
2023-01-07T03:38:07.090Z,0
2023-01-07T03:39:07.074Z,0
2023-01-07T03:40:07.058Z,0
2023-01-07T03:41:07.049Z,0
2023-01-07T03:42:07.048Z,0
2023-01-07T03:43:07.028Z,0
2023-01-07T03:44:07.034Z,0
2023-01-07T03:45:07.009Z,0
2023-01-07T03:46:07.006Z,0
2023-01-07T03:47:06.983Z,0
2023-01-07T03:48:06.998Z,0
2023-01-07T03:49:06.965Z,0
2023-01-07T03:50:06.954Z,0
2023-01-07T03:51:06.951Z,0
2023-01-07T03:52:06.947Z,0
2023-01-07T03:53:06.925Z,0
2023-01-07T03:54:06.920Z,0
2023-01-07T03:55:06.923Z,0
2023-01-07T03:56:06.892Z,0
2023-01-07T03:57:06.896Z,0
2023-01-07T03:58:06.889Z,0
2023-01-07T03:59:06.863Z,0
2023-01-07T04:00:06.876Z,0
2023-01-07T04:01:07.097Z,0
2023-01-07T04:02:06.835Z,0
2023-01-07T04:03:06.828Z,0
2023-01-07T04:04:06.804Z,0
2023-01-07T04:05:06.798Z,0
2023-01-07T04:06:06.789Z,0
2023-01-07T04:07:06.805Z,0
2023-01-07T04:08:06.784Z,0
2023-01-07T04:09:06.766Z,0
2023-01-07T04:10:06.770Z,0
2023-01-07T04:11:06.739Z,0
2023-01-07T04:12:06.723Z,0
2023-01-07T04:13:06.714Z,0
2023-01-07T04:14:06.703Z,0
2023-01-07T04:15:06.710Z,0
2023-01-07T04:16:06.709Z,0
2023-01-07T04:17:06.692Z,0
2023-01-07T04:18:06.658Z,0
2023-01-07T04:19:06.650Z,0
2023-01-07T04:20:06.681Z,0
2023-01-07T04:21:06.632Z,0
2023-01-07T04:22:06.624Z,0
2023-01-07T04:23:06.608Z,0
2023-01-07T04:24:06.597Z,0
2023-01-07T04:25:06.590Z,0
2023-01-07T04:26:06.591Z,0
2023-01-07T04:27:06.564Z,0
2023-01-07T04:28:06.556Z,0
2023-01-07T04:29:06.548Z,0
2023-01-07T04:30:06.550Z,0
2023-01-07T04:31:06.523Z,0
2023-01-07T04:32:06.538Z,0
2023-01-07T04:33:06.561Z,0
2023-01-07T04:34:06.489Z,0
2023-01-07T04:35:06.492Z,0
2023-01-07T04:36:06.481Z,0
2023-01-07T04:37:06.465Z,0
2023-01-07T04:38:06.464Z,0
2023-01-07T04:39:06.436Z,0
2023-01-07T04:40:06.433Z,0
2023-01-07T04:41:06.427Z,0
2023-01-07T04:42:06.403Z,0
2023-01-07T05:20:45.798Z,0
2023-01-07T05:21:46.022Z,0
2023-01-07T05:22:46.236Z,0
2023-01-07T05:23:45.761Z,0
2023-01-07T05:24:45.793Z,0
2023-01-07T05:25:45.846Z,0
2023-01-07T05:26:45.673Z,0
2023-01-07T05:27:45.650Z,0
2023-01-07T05:28:45.592Z,0
2023-01-07T05:29:45.570Z,0
2023-01-07T05:30:45.608Z,0
2023-01-07T05:31:45.566Z,0
2023-01-07T05:32:45.569Z,0
2023-01-07T05:33:45.551Z,0
2023-01-07T05:34:45.540Z,0
2023-01-07T05:35:45.541Z,0
2023-01-07T05:36:45.515Z,0
2023-01-07T05:37:45.500Z,0
2023-01-07T05:38:45.513Z,0
2023-01-07T05:39:45.482Z,0
2023-01-07T05:40:45.465Z,0
2023-01-07T05:41:45.475Z,0
2023-01-07T05:42:45.466Z,0
2023-01-07T05:43:45.434Z,0
2023-01-07T05:44:45.418Z,0
2023-01-07T05:45:45.409Z,0
2023-01-07T05:46:45.405Z,0
2023-01-07T05:47:45.396Z,0
2023-01-07T05:48:45.387Z,0
2023-01-07T05:49:45.377Z,0
2023-01-07T05:50:45.346Z,0
2023-01-07T05:51:45.354Z,0
2023-01-07T05:52:45.397Z,0
2023-01-07T05:53:45.322Z,0
2023-01-07T05:54:45.305Z,0
2023-01-07T05:55:45.315Z,0
2023-01-07T05:56:45.290Z,0
2023-01-07T05:57:45.293Z,0
2023-01-07T05:58:45.292Z,0
2023-01-07T05:59:45.288Z,0
2023-01-07T06:00:45.247Z,0
2023-01-07T06:01:45.246Z,0
2023-01-07T06:02:45.236Z,0
2023-01-07T06:03:45.223Z,0
2023-01-07T06:04:45.218Z,0
2023-01-07T06:05:45.220Z,0
2023-01-07T06:06:45.183Z,0
2023-01-07T06:07:45.169Z,0
2023-01-07T06:08:45.156Z,0
2023-01-07T06:09:45.210Z,0
2023-01-07T06:10:46.145Z,0
2023-01-07T06:11:45.123Z,0
2023-01-07T06:12:45.107Z,0
2023-01-07T06:13:45.110Z,0
2023-01-07T06:14:45.113Z,0
2023-01-07T06:15:45.082Z,0
2023-01-07T06:16:45.072Z,0
2023-01-07T06:17:45.063Z,0
2023-01-07T06:18:45.054Z,0
2023-01-07T06:19:45.042Z,0
2023-01-07T06:20:45.024Z,0
2023-01-07T06:21:45.022Z,0
2023-01-07T06:22:45.040Z,0
2023-01-07T06:23:45.008Z,0
2023-01-07T06:24:45.003Z,0
2023-01-07T06:25:44.986Z,0
2023-01-07T06:26:44.972Z,0
2023-01-07T06:27:44.956Z,0
2023-01-07T06:28:45.058Z,0
2023-01-07T06:29:44.934Z,0
2023-01-07T06:30:44.919Z,0
2023-01-07T06:31:44.908Z,0
2023-01-07T06:32:44.919Z,0
2023-01-07T06:33:44.901Z,0
2023-01-07T06:34:44.882Z,0
2023-01-07T06:35:44.878Z,0
2023-01-07T06:36:44.889Z,0
2023-01-07T06:37:44.867Z,0
2023-01-07T06:38:45.139Z,0
2023-01-07T06:45:24.430Z,0
2023-01-07T06:46:24.224Z,0
2023-01-07T06:47:24.025Z,0
2023-01-07T06:48:24.115Z,0
2023-01-07T06:49:24.997Z,0
2023-01-07T06:50:23.960Z,0
2023-01-07T06:51:23.981Z,0
2023-01-07T06:52:24.270Z,0
2023-01-07T06:53:23.956Z,0
2023-01-07T06:54:24.088Z,0
2023-01-07T06:55:23.989Z,0
2023-01-07T06:56:24.030Z,0
2023-01-07T06:57:25.022Z,0
2023-01-07T06:58:24.026Z,0
2023-01-07T06:59:24.122Z,0
2023-01-07T07:02:26.144Z,0
2023-01-07T07:03:25.705Z,0
2023-01-07T07:04:25.687Z,0
2023-01-07T07:05:25.683Z,0
2023-01-07T07:06:25.669Z,0
2023-01-07T07:07:25.651Z,0
2023-01-07T07:08:25.643Z,0
2023-01-07T07:09:25.626Z,0
2023-01-07T07:10:25.615Z,0
2023-01-07T07:11:25.631Z,0
2023-01-07T07:12:25.633Z,0
2023-01-07T07:13:25.590Z,0
2023-01-07T07:14:25.574Z,0
2023-01-07T07:15:25.562Z,0
2023-01-07T07:16:25.553Z,0
2023-01-07T07:17:25.550Z,0
2023-01-07T07:18:25.532Z,0
2023-01-07T07:19:25.518Z,0
2023-01-07T07:20:25.507Z,0
2023-01-07T07:21:25.501Z,0
2023-01-07T07:22:25.496Z,0
2023-01-07T07:23:25.488Z,0
2023-01-07T07:24:25.468Z,0
2023-01-07T07:25:25.458Z,0
2023-01-07T07:26:25.446Z,0
2023-01-07T07:27:25.437Z,0
2023-01-07T07:28:25.441Z,0
2023-01-07T07:29:25.413Z,0
2023-01-07T07:30:25.408Z,0
2023-01-07T07:31:25.390Z,0
2023-01-07T07:32:25.381Z,0
2023-01-07T07:33:25.372Z,0
2023-01-07T07:34:25.358Z,0
2023-01-07T07:35:25.377Z,0
2023-01-07T07:36:25.352Z,0
2023-01-07T07:37:25.328Z,0
2023-01-07T07:38:25.317Z,0
2023-01-07T07:39:25.307Z,0
2023-01-07T07:40:25.299Z,5.62
2023-01-07T07:41:25.285Z,5.62
2023-01-07T07:42:25.909Z,5.62
2023-01-07T07:43:25.260Z,5.62
2023-01-07T07:44:25.265Z,5.62
2023-01-07T07:45:25.243Z,5.62
2023-01-07T07:46:25.271Z,5.62
2023-01-07T07:47:25.244Z,5.62
2023-01-07T07:48:25.212Z,5.62
2023-01-07T07:49:25.199Z,5.62
2023-01-07T07:50:25.193Z,11.25
2023-01-07T07:51:25.210Z,11.25
2023-01-07T07:52:25.160Z,11.25
2023-01-07T07:53:25.152Z,11.25
2023-01-07T07:54:25.143Z,11.25
2023-01-07T07:55:25.131Z,11.25
2023-01-07T07:56:25.120Z,11.25
2023-01-07T07:57:25.110Z,11.25
2023-01-07T07:58:25.108Z,11.25
2023-01-07T07:59:25.086Z,11.25
2023-01-07T08:00:25.123Z,11.25
2023-01-07T08:01:25.084Z,11.25
2023-01-07T08:02:25.205Z,11.25
2023-01-07T08:03:25.042Z,11.25
2023-01-07T08:04:25.032Z,11.25
2023-01-07T08:05:25.024Z,11.25
2023-01-07T08:06:25.008Z,11.25
2023-01-07T08:07:25.013Z,11.25
2023-01-07T08:08:24.989Z,11.25
2023-01-07T08:09:24.978Z,16.88
2023-01-07T08:10:24.964Z,16.88
2023-01-07T08:11:24.964Z,16.88
2023-01-07T08:12:24.952Z,16.88
2023-01-07T08:13:24.931Z,16.88
2023-01-07T08:14:24.922Z,16.88
2023-01-07T08:15:24.921Z,16.88
2023-01-07T08:16:24.902Z,16.88
2023-01-07T08:17:24.897Z,22.5
2023-01-07T08:18:24.877Z,22.5
2023-01-07T08:19:24.873Z,22.5
2023-01-07T08:20:24.860Z,22.5
2023-01-07T08:21:24.866Z,22.5
2023-01-07T08:22:24.837Z,22.5
2023-01-07T08:23:24.879Z,22.5
2023-01-07T08:24:24.818Z,22.5
2023-01-07T08:25:24.802Z,22.5
2023-01-07T08:26:24.792Z,22.5
2023-01-07T08:27:24.776Z,22.5
2023-01-07T08:28:24.790Z,22.5
2023-01-07T08:29:24.779Z,22.5
2023-01-07T08:30:24.745Z,22.5
2023-01-07T08:31:24.739Z,22.5
2023-01-07T08:32:24.738Z,22.5
2023-01-07T08:33:24.738Z,28.12
2023-01-07T08:34:24.709Z,28.12
2023-01-07T08:35:24.700Z,28.12
2023-01-07T08:36:24.690Z,28.12
2023-01-07T08:37:24.680Z,28.12
2023-01-07T08:38:24.664Z,28.12
2023-01-07T08:39:24.653Z,33.75
2023-01-07T08:40:24.638Z,28.12
2023-01-07T08:41:24.634Z,28.12
2023-01-07T08:42:24.627Z,28.12
2023-01-07T08:43:24.621Z,28.12
2023-01-07T08:44:24.610Z,33.75
2023-01-07T08:45:24.597Z,33.75
2023-01-07T08:46:24.597Z,33.75
2023-01-07T08:47:24.859Z,33.75
2023-01-07T08:48:24.703Z,28.12
2023-01-07T08:49:24.555Z,28.12
2023-01-07T08:50:24.532Z,28.12
2023-01-07T08:51:24.536Z,28.12
2023-01-07T08:52:24.523Z,28.12
2023-01-07T08:53:24.503Z,33.75
2023-01-07T08:54:24.521Z,33.75
2023-01-07T08:55:25.448Z,33.75
2023-01-07T08:56:24.593Z,33.75
2023-01-07T08:57:24.601Z,33.75
2023-01-07T08:58:24.513Z,33.75
2023-01-07T08:59:24.438Z,39.38
2023-01-07T09:00:24.426Z,39.38
2023-01-07T09:01:24.421Z,39.38
2023-01-07T09:02:24.413Z,39.38
2023-01-07T09:03:24.401Z,39.38
2023-01-07T09:04:24.387Z,45
2023-01-07T09:05:24.394Z,50.62
2023-01-07T09:06:24.362Z,50.62
2023-01-07T09:07:24.350Z,50.62
2023-01-07T09:08:24.339Z,50.62
2023-01-07T09:09:24.350Z,50.62
2023-01-07T09:10:24.333Z,50.62
2023-01-07T09:11:24.307Z,50.62
2023-01-07T09:12:24.301Z,56.25
2023-01-07T09:13:24.300Z,56.25
2023-01-07T09:14:24.276Z,56.25
2023-01-07T09:15:24.283Z,56.25
2023-01-07T09:16:24.257Z,61.88
2023-01-07T09:17:24.261Z,67.5
2023-01-07T09:18:24.240Z,67.5
2023-01-07T09:19:24.253Z,67.5
2023-01-07T09:20:24.214Z,67.5
2023-01-07T09:21:24.208Z,67.5
2023-01-07T09:22:24.209Z,67.5
2023-01-07T09:23:24.186Z,67.5
2023-01-07T09:24:24.178Z,67.5
2023-01-07T09:25:24.186Z,67.5
2023-01-07T09:26:24.172Z,67.5
2023-01-07T09:27:24.153Z,67.5
2023-01-07T09:28:24.129Z,67.5
2023-01-07T09:29:24.116Z,67.5
2023-01-07T09:30:24.111Z,67.5
2023-01-07T09:31:24.109Z,67.5
2023-01-07T09:32:24.088Z,67.5
2023-01-07T09:33:24.074Z,73.12
2023-01-07T09:34:24.076Z,73.12
2023-01-07T09:35:24.054Z,78.75
2023-01-07T09:36:24.070Z,78.75
2023-01-07T09:37:24.032Z,84.38
2023-01-07T09:38:24.023Z,90
2023-01-07T09:39:24.008Z,95.62
2023-01-07T09:40:24.002Z,101.25
2023-01-07T09:41:23.997Z,101.25
2023-01-07T09:42:23.979Z,95.62
2023-01-07T09:43:23.999Z,95.62
2023-01-07T09:44:23.958Z,101.25
2023-01-07T09:45:23.954Z,95.62
2023-01-07T09:46:23.949Z,101.25
2023-01-07T09:47:23.931Z,106.88
2023-01-07T09:48:23.915Z,106.88
2023-01-07T09:49:23.908Z,101.25
2023-01-07T09:50:23.890Z,106.88
2023-01-07T09:51:23.885Z,101.25
2023-01-07T09:52:23.875Z,95.62
2023-01-07T09:53:23.861Z,95.62
2023-01-07T09:54:23.904Z,90
2023-01-07T09:55:23.842Z,84.38
2023-01-07T09:56:23.830Z,78.75
2023-01-07T09:57:23.816Z,78.75
2023-01-07T09:58:23.805Z,73.12
2023-01-07T09:59:23.800Z,73.12
2023-01-07T10:00:23.832Z,67.5
2023-01-07T10:01:23.775Z,61.88
2023-01-07T10:02:23.766Z,61.88
2023-01-07T10:03:23.754Z,61.88
2023-01-07T10:04:23.802Z,56.25
2023-01-07T10:05:23.737Z,56.25
2023-01-07T10:06:23.715Z,50.62
2023-01-07T10:07:23.722Z,50.62
2023-01-07T10:08:23.702Z,56.25
2023-01-07T10:09:23.690Z,61.88
2023-01-07T10:10:23.673Z,67.5
2023-01-07T10:11:23.678Z,67.5
2023-01-07T10:12:23.665Z,73.12
2023-01-07T10:13:23.644Z,78.75
2023-01-07T10:14:23.683Z,78.75
2023-01-07T10:15:23.643Z,78.75
2023-01-07T10:16:23.610Z,78.75
2023-01-07T10:17:23.609Z,84.38
2023-01-07T10:18:23.590Z,84.38
2023-01-07T10:19:23.585Z,95.62
2023-01-07T10:20:23.577Z,106.88
2023-01-07T10:21:23.560Z,118.12
2023-01-07T10:22:23.547Z,118.12
2023-01-07T10:23:23.540Z,112.5
2023-01-07T10:24:23.524Z,101.25
2023-01-07T10:25:23.556Z,90
2023-01-07T10:26:23.508Z,78.75
2023-01-07T10:27:23.492Z,78.75
2023-01-07T10:28:23.490Z,78.75
2023-01-07T10:29:23.479Z,78.75
2023-01-07T10:30:23.462Z,73.12
2023-01-07T10:31:23.451Z,78.75
2023-01-07T10:32:23.447Z,73.12
2023-01-07T10:33:23.433Z,73.12
2023-01-07T10:34:23.426Z,73.12
2023-01-07T10:35:23.428Z,73.12
2023-01-07T10:36:23.429Z,73.12
2023-01-07T10:37:23.384Z,78.75
2023-01-07T10:38:23.373Z,78.75
2023-01-07T10:39:23.369Z,78.75
2023-01-07T10:40:23.366Z,78.75
2023-01-07T10:41:23.341Z,73.12
2023-01-07T10:42:23.343Z,73.12
2023-01-07T10:43:23.326Z,67.5
2023-01-07T10:44:23.316Z,73.12
2023-01-07T10:45:23.311Z,67.5
2023-01-07T10:46:23.288Z,67.5
2023-01-07T10:47:23.277Z,61.88
2023-01-07T10:48:23.279Z,61.88
2023-01-07T10:49:23.301Z,61.88
2023-01-07T10:50:23.243Z,61.88
2023-01-07T10:51:23.242Z,56.25
2023-01-07T10:52:23.222Z,56.25
2023-01-07T10:53:23.214Z,56.25
2023-01-07T10:54:23.219Z,50.62
2023-01-07T10:55:23.190Z,50.62
2023-01-07T10:56:23.203Z,45
2023-01-07T10:57:23.207Z,45
2023-01-07T10:58:23.176Z,39.38
2023-01-07T10:59:23.156Z,39.38
2023-01-07T11:00:23.140Z,39.38
2023-01-07T11:01:23.127Z,33.75
2023-01-07T11:02:23.118Z,33.75
2023-01-07T11:03:23.104Z,33.75
2023-01-07T11:04:23.095Z,39.38
2023-01-07T11:05:23.080Z,39.38
2023-01-07T11:06:23.120Z,39.38
2023-01-07T11:07:23.109Z,33.75
2023-01-07T11:08:23.065Z,33.75
2023-01-07T11:09:23.043Z,33.75
2023-01-07T11:10:23.031Z,33.75
2023-01-07T11:11:23.022Z,33.75
2023-01-07T11:12:23.022Z,33.75
2023-01-07T11:13:23.033Z,33.75
2023-01-07T11:14:23.005Z,33.75
2023-01-07T11:15:22.979Z,33.75
2023-01-07T11:16:22.967Z,33.75
2023-01-07T11:17:22.995Z,33.75
2023-01-07T11:18:23.919Z,33.75
2023-01-07T11:19:22.948Z,33.75
2023-01-07T11:20:22.948Z,33.75
2023-01-07T11:21:22.932Z,39.38
2023-01-07T11:22:22.903Z,39.38
2023-01-07T11:23:22.886Z,39.38
2023-01-07T11:24:22.885Z,39.38
2023-01-07T11:25:22.893Z,45
2023-01-07T11:26:22.863Z,45
2023-01-07T11:27:22.874Z,45
2023-01-07T11:28:22.854Z,45
2023-01-07T11:29:22.831Z,45
2023-01-07T11:30:22.848Z,45
2023-01-07T11:31:22.804Z,50.62
2023-01-07T11:32:22.792Z,50.62
2023-01-07T11:33:22.800Z,56.25
2023-01-07T11:34:22.785Z,61.88
2023-01-07T11:35:22.768Z,61.88
2023-01-07T11:36:22.767Z,67.5
2023-01-07T11:37:22.750Z,67.5
2023-01-07T11:38:22.783Z,61.88
2023-01-07T11:39:22.719Z,61.88
2023-01-07T11:40:22.712Z,56.25
2023-01-07T11:41:22.700Z,61.88
2023-01-07T11:42:22.682Z,61.88
2023-01-07T11:43:22.712Z,61.88
2023-01-07T11:44:22.776Z,61.88
2023-01-07T11:45:22.675Z,61.88
2023-01-07T11:46:22.643Z,61.88
2023-01-07T11:47:22.632Z,56.25
2023-01-07T11:48:22.623Z,56.25
2023-01-07T11:49:22.630Z,56.25
2023-01-07T11:50:22.645Z,56.25
2023-01-07T11:51:22.593Z,50.62
2023-01-07T11:52:22.581Z,50.62
2023-01-07T11:53:22.572Z,45
2023-01-07T11:54:22.571Z,50.62
2023-01-07T11:55:22.558Z,56.25
2023-01-07T11:56:22.548Z,56.25
2023-01-07T11:57:22.526Z,50.62
2023-01-07T11:58:22.514Z,45
2023-01-07T11:59:22.513Z,39.38
2023-01-07T12:00:22.505Z,33.75
2023-01-07T12:01:22.486Z,33.75
2023-01-07T12:02:22.472Z,28.12
2023-01-07T12:03:22.476Z,28.12
2023-01-07T12:04:22.510Z,28.12
2023-01-07T12:05:22.440Z,28.12
2023-01-07T12:06:22.467Z,28.12
2023-01-07T12:07:22.451Z,22.5
2023-01-07T12:08:22.409Z,22.5
2023-01-07T12:09:22.415Z,22.5
2023-01-07T12:10:22.385Z,22.5
2023-01-07T12:11:22.378Z,22.5
2023-01-07T12:12:22.364Z,22.5
2023-01-07T12:13:22.397Z,16.88
2023-01-07T12:14:22.911Z,16.88
2023-01-07T12:15:22.329Z,16.88
2023-01-07T12:16:22.333Z,16.88
2023-01-07T12:17:22.335Z,16.88
2023-01-07T12:18:22.347Z,16.88
2023-01-07T12:19:22.356Z,16.88
2023-01-07T12:20:22.279Z,16.88
2023-01-07T12:21:22.268Z,22.5
2023-01-07T12:22:22.283Z,22.5
2023-01-07T12:23:22.245Z,16.88
2023-01-07T12:24:22.243Z,16.88
2023-01-07T12:25:22.237Z,22.5
2023-01-07T12:26:22.224Z,22.5
2023-01-07T12:27:22.246Z,22.5
2023-01-07T12:28:22.207Z,22.5
2023-01-07T12:29:22.187Z,22.5
2023-01-07T12:30:22.222Z,22.5
2023-01-07T12:31:22.235Z,22.5
2023-01-07T12:32:22.161Z,22.5
2023-01-07T12:33:22.160Z,22.5
2023-01-07T12:34:22.137Z,22.5
2023-01-07T12:35:22.175Z,22.5
2023-01-07T12:36:22.115Z,22.5
2023-01-07T12:37:22.099Z,16.88
2023-01-07T12:38:22.087Z,16.88
2023-01-07T12:39:22.106Z,16.88
2023-01-07T12:40:22.084Z,16.88
2023-01-07T12:41:22.056Z,16.88
2023-01-07T12:43:22.038Z,16.88
2023-01-07T12:44:22.029Z,22.5
2023-01-07T12:45:22.019Z,22.5
2023-01-07T12:46:22.002Z,22.5
2023-01-07T12:47:22.039Z,22.5
2023-01-07T12:48:22.050Z,16.88
2023-01-07T12:49:21.972Z,16.88
2023-01-07T12:50:22.004Z,16.88
2023-01-07T12:51:22.014Z,16.88
2023-01-07T12:52:21.938Z,16.88
2023-01-07T12:53:21.931Z,16.88
2023-01-07T12:54:21.917Z,16.88
2023-01-07T12:55:21.903Z,22.5
2023-01-07T12:56:21.896Z,22.5
2023-01-07T12:57:21.886Z,28.12
2023-01-07T12:58:21.874Z,33.75
2023-01-07T12:59:21.869Z,33.75
2023-01-07T13:00:21.851Z,33.75
2023-01-07T13:01:21.847Z,33.75
2023-01-07T13:54:29.515Z,78.75
2023-01-07T13:55:29.487Z,78.75
2023-01-07T13:56:29.488Z,78.75
2023-01-07T13:57:29.466Z,73.12
2023-01-07T13:58:29.470Z,73.12
2023-01-07T13:59:29.455Z,73.12
2023-01-07T14:00:29.497Z,73.12
2023-01-07T14:01:30.465Z,73.12
2023-01-07T14:02:29.419Z,78.75
2023-01-07T14:03:29.406Z,73.12
2023-01-07T14:04:29.405Z,73.12
2023-01-07T14:05:29.381Z,67.5
2023-01-07T14:06:29.409Z,73.12
2023-01-07T14:07:29.370Z,73.12
2023-01-07T14:08:29.619Z,73.12
2023-01-07T14:09:29.348Z,73.12
2023-01-07T14:10:29.376Z,67.5
2023-01-07T14:11:29.320Z,56.25
2023-01-07T14:12:29.334Z,50.62
2023-01-07T14:13:29.338Z,50.62
2023-01-07T14:14:29.517Z,50.62
2023-01-07T14:15:29.361Z,45
2023-01-07T14:16:29.276Z,45
2023-01-07T14:17:29.298Z,45
2023-01-07T14:18:53.428Z,45
2023-01-07T14:19:29.239Z,45
2023-01-07T14:20:29.250Z,50.62
2023-01-07T14:21:29.252Z,50.62
2023-01-07T14:22:29.198Z,50.62
2023-01-07T14:23:29.246Z,45
2023-01-07T14:24:29.184Z,39.38
2023-01-07T14:25:29.180Z,39.38
2023-01-07T14:26:29.160Z,39.38
2023-01-07T14:27:29.158Z,33.75
2023-01-07T14:28:36.704Z,33.75
2023-01-07T14:29:29.159Z,28.12
2023-01-07T14:30:29.124Z,28.12
2023-01-07T14:31:29.125Z,28.12
2023-01-07T14:32:29.207Z,22.5
2023-01-07T14:33:29.094Z,22.5
2023-01-07T14:34:29.074Z,22.5
2023-01-07T14:35:29.064Z,16.88
2023-01-07T14:36:29.075Z,22.5
2023-01-07T14:37:29.041Z,22.5
2023-01-07T14:38:29.038Z,16.88
2023-01-07T14:39:29.023Z,16.88
2023-01-07T14:40:29.011Z,16.88
2023-01-07T14:50:06.073Z,11.25
2023-01-07T14:51:05.746Z,11.25
2023-01-07T14:52:05.498Z,11.25
2023-01-07T14:53:05.404Z,11.25
2023-01-07T14:54:05.393Z,11.25
2023-01-07T14:55:06.373Z,11.25
2023-01-07T14:56:06.258Z,11.25
2023-01-07T14:57:05.462Z,11.25
2023-01-07T14:58:06.390Z,11.25
2023-01-07T14:59:05.414Z,11.25
2023-01-07T15:00:06.426Z,11.25
2023-01-07T15:01:05.771Z,11.25
2023-01-07T15:02:05.293Z,11.25
2023-01-07T15:03:05.285Z,11.25
2023-01-07T15:04:06.382Z,11.25
2023-01-07T15:05:05.294Z,11.25
2023-01-07T15:06:05.265Z,11.25
2023-01-07T15:07:05.244Z,11.25
2023-01-07T15:08:05.236Z,5.62
2023-01-07T15:09:05.268Z,5.62
2023-01-07T15:10:06.240Z,5.62
2023-01-07T15:11:05.205Z,5.62
2023-01-07T15:12:05.232Z,5.62
2023-01-07T15:13:05.161Z,5.62
2023-01-07T15:14:05.137Z,5.62
2023-01-07T15:15:05.127Z,5.62
2023-01-07T15:16:05.351Z,5.62
2023-01-07T15:17:05.118Z,5.62
2023-01-07T15:18:05.166Z,5.62
2023-01-07T15:19:05.104Z,5.62
2023-01-07T15:20:05.088Z,0
2023-01-07T15:21:05.082Z,0
2023-01-07T15:22:05.130Z,0
2023-01-07T15:23:05.087Z,0
2023-01-07T15:24:05.127Z,0
2023-01-07T15:25:05.043Z,0
2023-01-07T15:26:05.027Z,0
2023-01-07T15:27:05.012Z,0
2023-01-07T15:28:06.032Z,0
2023-01-07T15:29:05.164Z,0
2023-01-07T15:30:05.003Z,0
2023-01-07T15:31:05.029Z,0
2023-01-07T15:32:05.066Z,0
2023-01-07T15:33:04.967Z,0
2023-01-07T15:34:04.999Z,0
2023-01-07T15:35:04.969Z,0
2023-01-07T15:36:05.022Z,0
2023-01-07T15:37:05.118Z,0
2023-01-07T15:38:04.888Z,0
2023-01-07T15:39:04.886Z,0
2023-01-07T15:40:05.081Z,0